Airfield :
LOGIN :

Register | Disclaimer

   EN    FR    IT 

 










Legend :    VFR   Marginal VFR   IFR   Intensive IFR   Very Intensive IFR
Visi :
Ceiling :
>= 8 km
>= 3000ft
5 to 8 km
1000 to 3000 ft
1500m to 5 km
500 to 1000 ft
800 to 1500m
200 to 500 ft
< 800m
< 200 ft
Symbols :   Thunderstorms  Fog  Heavy snow  Heavy precipitations  Wind > 20 kt
SIGMETs :     Misc.  Thunderstorms  Icing  Turbulence  Mountain Waves  Volcanic Ashes







- Airport Elevation : 614 ft
- IATA code : CRL


EBCI - Charleroi

CURRENT METAR :
  • 191350Z 03006KT 350V060 9000 FEW025 15/10 Q1024 NOSIG

EXPIRED METARs :
  • 191320Z 02005KT 350V060 9000 FEW025 15/10 Q1024 NOSIG
  • 191250Z 03005KT 350V090 9000 FEW018 15/10 Q1024 NOSIG
  • 191220Z 03006KT 340V080 9000 FEW016 15/09 Q1024 NOSIG
  • 191150Z 02005KT 330V070 7000 SCT014 14/10 Q1024 NOSIG
  • 191120Z 02005KT 340V060 7000 SCT014 14/10 Q1024 NOSIG

TAF TAF EBCI
Valid from the 19 at 12:00 until the 20 at 18:00 UTC


191110Z 1912/2018 02006KT 9999 SCT010 SCT040
PROB30
TEMPO 2003/2007 1400 BR BCFG
No reported NOTAMs for that airfield.



MET'MAP, your aeronautical weather chart ! - Copyright ORBIFLY December 2007 - Disclaimer

ORBIFLY MET'MAP TEAM :

Programming & Development : Alexandra Zaïnal
Concept & Development : Baudouin d'Aumeries
Co-Development & Prog : Marc-Olivier Méhu
Technical & hardware support : Manuel Goepfert

Contact : metmap@orbifly.com




SOURCES & CREDITS :

   NOAA